createdAt,value
2018-06-30T00:00:07.996Z,98.53
2018-06-30T00:02:36.857Z,98.26
2018-06-30T00:05:05.172Z,97.96
2018-06-30T00:07:33.511Z,98.43
2018-06-30T00:10:01.660Z,99.03
2018-06-30T00:12:30.202Z,99.31
2018-06-30T00:14:58.529Z,99.56
2018-06-30T00:17:26.918Z,99.07
2018-06-30T00:19:55.437Z,99.10
2018-06-30T00:22:23.774Z,99.10
2018-06-30T00:24:52.046Z,98.56
2018-06-30T00:27:25.809Z,97.35
2018-06-30T00:29:54.129Z,97.24
2018-06-30T00:32:22.460Z,98.07
2018-06-30T00:34:50.823Z,98.07
2018-06-30T00:37:18.853Z,98.73
2018-06-30T00:39:47.230Z,98.57
2018-06-30T00:42:15.514Z,97.51
2018-06-30T00:44:43.697Z,97.70
2018-06-30T00:47:11.958Z,98.22
2018-06-30T00:49:40.373Z,98.59
2018-06-30T00:52:08.922Z,98.24
2018-06-30T00:54:37.350Z,97.66
2018-06-30T00:57:05.916Z,98.26
2018-06-30T00:59:34.354Z,98.27
2018-06-30T01:02:02.833Z,99.73
2018-06-30T01:04:31.242Z,99.70
2018-06-30T01:06:59.473Z,99.50
2018-06-30T01:09:27.870Z,100.00
2018-06-30T01:11:56.380Z,100.00
2018-06-30T01:14:24.731Z,99.67
2018-06-30T01:16:53.033Z,99.24
2018-06-30T01:19:21.412Z,99.98
2018-06-30T01:21:49.755Z,99.96
2018-06-30T01:24:18.019Z,99.02
2018-06-30T01:26:46.306Z,98.35
2018-06-30T01:29:14.454Z,99.42
2018-06-30T01:31:42.797Z,99.66
2018-06-30T01:34:11.106Z,100.00
2018-06-30T01:36:39.505Z,100.00
2018-06-30T01:39:09.157Z,100.00
2018-06-30T01:41:37.599Z,100.00
2018-06-30T01:44:05.984Z,100.00
2018-06-30T01:46:33.954Z,100.00
2018-06-30T01:49:02.322Z,100.00
2018-06-30T01:51:30.589Z,100.00
2018-06-30T01:53:59.006Z,100.00
2018-06-30T01:56:27.237Z,100.00
2018-06-30T01:58:55.521Z,100.00
2018-06-30T02:01:23.692Z,100.00
2018-06-30T02:03:52.074Z,100.00
2018-06-30T02:06:20.406Z,100.00
2018-06-30T02:08:48.830Z,100.00
2018-06-30T02:11:17.093Z,100.00
2018-06-30T02:13:45.414Z,100.00
2018-06-30T02:16:13.744Z,100.00
2018-06-30T02:18:42.039Z,100.00
2018-06-30T02:21:10.313Z,100.00
2018-06-30T02:23:38.473Z,100.00
2018-06-30T02:26:06.910Z,100.00
2018-06-30T02:28:35.125Z,100.00
2018-06-30T02:31:03.409Z,100.00
2018-06-30T02:33:31.530Z,100.00
2018-06-30T02:35:59.872Z,100.00
2018-06-30T02:38:28.030Z,100.00
2018-06-30T02:40:55.941Z,100.00
2018-06-30T02:43:24.279Z,100.00
2018-06-30T02:45:52.570Z,100.00
2018-06-30T02:48:20.845Z,100.00
2018-06-30T02:50:49.107Z,100.00
2018-06-30T02:53:17.269Z,100.00
2018-06-30T02:55:45.649Z,100.00
2018-06-30T02:58:13.881Z,100.00
2018-06-30T03:00:42.359Z,100.00
2018-06-30T03:03:10.679Z,100.00
2018-06-30T03:05:38.952Z,100.00
2018-06-30T03:08:07.469Z,100.00
2018-06-30T03:10:35.705Z,100.00
2018-06-30T03:13:04.189Z,100.00
2018-06-30T03:15:32.501Z,100.00
2018-06-30T03:18:00.837Z,100.00
2018-06-30T03:20:29.117Z,100.00
2018-06-30T03:22:57.546Z,100.00
2018-06-30T03:25:25.978Z,100.00
2018-06-30T03:27:54.153Z,100.00
2018-06-30T03:30:22.434Z,100.00
2018-06-30T03:32:50.802Z,100.00
2018-06-30T03:35:18.881Z,100.00
2018-06-30T03:37:47.353Z,100.00
2018-06-30T03:40:15.506Z,100.00
2018-06-30T03:42:43.682Z,100.00
2018-06-30T03:45:12.214Z,100.00
2018-06-30T03:47:40.566Z,100.00
2018-06-30T03:50:08.935Z,100.00
2018-06-30T03:52:37.245Z,100.00
2018-06-30T03:55:05.890Z,100.00
2018-06-30T03:57:34.128Z,100.00
2018-06-30T04:00:02.517Z,100.00
2018-06-30T04:02:30.833Z,100.00
2018-06-30T04:04:59.103Z,100.00
2018-06-30T04:07:27.511Z,99.50
2018-06-30T04:09:55.845Z,99.71
2018-06-30T04:12:24.138Z,97.78
2018-06-30T04:14:52.422Z,97.50
2018-06-30T04:17:20.781Z,97.89
2018-06-30T04:19:49.066Z,98.52
2018-06-30T04:22:18.187Z,98.59
2018-06-30T04:24:46.625Z,98.63
2018-06-30T04:27:15.013Z,99.03
2018-06-30T04:29:43.114Z,98.71
2018-06-30T04:32:11.557Z,99.08
2018-06-30T04:34:39.833Z,99.53
2018-06-30T04:37:07.821Z,98.93
2018-06-30T04:39:36.177Z,98.35
2018-06-30T04:42:04.811Z,98.17
2018-06-30T04:44:33.140Z,97.78
2018-06-30T04:47:01.425Z,98.12
2018-06-30T04:49:29.797Z,98.54
2018-06-30T04:51:58.178Z,98.58
2018-06-30T04:54:26.444Z,96.74
2018-06-30T04:56:54.782Z,96.49
2018-06-30T04:59:23.202Z,97.39
2018-06-30T05:01:51.634Z,96.10
2018-06-30T05:04:20.431Z,96.79
2018-06-30T05:06:48.754Z,96.74
2018-06-30T05:09:17.030Z,97.45
2018-06-30T05:11:45.297Z,97.30
2018-06-30T05:14:13.473Z,98.29
2018-06-30T05:16:41.845Z,96.60
2018-06-30T05:19:10.028Z,96.61
2018-06-30T05:21:38.493Z,97.47
2018-06-30T05:24:06.681Z,97.62
2018-06-30T05:26:34.954Z,96.55
2018-06-30T05:29:03.221Z,93.31
2018-06-30T05:31:31.610Z,95.61
2018-06-30T05:33:59.879Z,95.97
2018-06-30T05:36:28.254Z,94.99
2018-06-30T05:38:56.741Z,94.26
2018-06-30T05:41:24.958Z,93.67
2018-06-30T05:43:53.385Z,92.96
2018-06-30T05:46:21.777Z,91.93
2018-06-30T05:48:50.052Z,91.58
2018-06-30T05:51:18.209Z,90.79
2018-06-30T05:53:46.385Z,88.73
2018-06-30T05:56:14.661Z,87.36
2018-06-30T06:01:17.194Z,87.08
2018-06-30T06:03:45.649Z,87.67
2018-06-30T06:06:14.029Z,87.95
2018-06-30T06:08:42.396Z,86.80
2018-06-30T06:11:10.988Z,86.95
2018-06-30T06:13:39.356Z,87.83
2018-06-30T06:16:07.636Z,86.63
2018-06-30T06:18:35.908Z,87.88
2018-06-30T06:21:04.352Z,88.70
2018-06-30T06:23:32.790Z,90.35
2018-06-30T06:26:01.278Z,90.32
2018-06-30T06:28:29.656Z,90.72
2018-06-30T06:30:57.700Z,91.34
2018-06-30T06:33:25.968Z,88.91
2018-06-30T06:35:54.356Z,85.05
2018-06-30T06:38:22.940Z,86.79
2018-06-30T06:40:51.316Z,87.06
2018-06-30T06:43:19.713Z,85.88
2018-06-30T06:45:48.172Z,87.31
2018-06-30T06:48:16.548Z,85.22
2018-06-30T06:50:44.432Z,83.73
2018-06-30T06:53:12.381Z,82.21
2018-06-30T06:55:40.337Z,86.82
2018-06-30T06:58:08.625Z,83.26
2018-06-30T07:00:37.007Z,80.41
2018-06-30T07:03:05.428Z,81.65
2018-06-30T07:05:33.861Z,82.98
2018-06-30T07:08:01.781Z,80.14
2018-06-30T07:10:29.714Z,82.81
2018-06-30T07:12:57.647Z,79.59
2018-06-30T07:15:25.604Z,79.72
2018-06-30T07:17:53.565Z,79.04
2018-06-30T07:20:21.578Z,77.17
2018-06-30T07:22:49.504Z,78.16
2018-06-30T07:25:17.912Z,77.15
2018-06-30T07:27:46.188Z,76.83
2018-06-30T07:30:14.168Z,77.56
2018-06-30T07:32:42.144Z,77.44
2018-06-30T07:35:10.179Z,74.10
2018-06-30T07:37:38.201Z,77.64
2018-06-30T07:40:06.131Z,77.18
2018-06-30T07:42:34.292Z,75.27
2018-06-30T07:45:02.217Z,74.37
2018-06-30T07:47:30.188Z,74.05
2018-06-30T07:49:58.184Z,74.22
2018-06-30T07:52:26.093Z,71.36
2018-06-30T07:54:54.080Z,71.46
2018-06-30T07:57:22.021Z,70.50
2018-06-30T07:59:49.956Z,71.24
2018-06-30T08:02:17.948Z,70.75
2018-06-30T08:04:45.864Z,70.40
2018-06-30T08:07:13.833Z,70.91
2018-06-30T08:09:41.800Z,71.69
2018-06-30T08:12:09.726Z,70.69
2018-06-30T08:14:37.656Z,70.93
2018-06-30T08:17:05.614Z,70.50
2018-06-30T08:19:33.549Z,68.96
2018-06-30T08:22:01.536Z,68.07
2018-06-30T08:24:29.516Z,67.29
2018-06-30T08:26:57.553Z,66.90
2018-06-30T08:29:25.532Z,67.98
2018-06-30T08:31:53.479Z,68.45
2018-06-30T08:34:21.454Z,67.90
2018-06-30T08:36:49.356Z,65.70
2018-06-30T08:39:17.776Z,65.44
2018-06-30T08:41:46.050Z,67.61
2018-06-30T08:44:14.535Z,64.69
2018-06-30T08:46:42.802Z,65.11
2018-06-30T08:49:11.193Z,64.64
2018-06-30T08:51:39.580Z,65.60
2018-06-30T08:54:08.037Z,66.06
2018-06-30T08:56:36.526Z,67.68
2018-06-30T08:59:05.107Z,66.93
2018-06-30T09:01:33.688Z,65.12
2018-06-30T09:04:01.852Z,65.02
2018-06-30T09:06:30.144Z,65.12
2018-06-30T09:08:58.517Z,66.17
2018-06-30T09:11:26.896Z,63.83
2018-06-30T09:13:55.372Z,65.47
2018-06-30T09:16:23.644Z,64.97
2018-06-30T09:18:51.921Z,65.78
2018-06-30T09:21:20.180Z,64.99
2018-06-30T09:23:48.472Z,65.92
2018-06-30T09:26:16.749Z,66.18
2018-06-30T09:28:45.121Z,65.28
2018-06-30T09:31:13.506Z,66.11
2018-06-30T09:33:41.880Z,63.43
2018-06-30T09:36:10.158Z,64.87
2018-06-30T09:38:38.640Z,64.50
2018-06-30T09:41:06.808Z,64.03
2018-06-30T09:43:35.087Z,65.57
2018-06-30T09:46:03.677Z,65.56
2018-06-30T09:48:32.045Z,66.41
2018-06-30T09:51:00.456Z,66.34
2018-06-30T09:53:28.791Z,66.98
2018-06-30T09:55:56.976Z,67.19
2018-06-30T09:58:25.343Z,66.80
2018-06-30T10:00:59.292Z,68.97
2018-06-30T10:03:27.612Z,67.96
2018-06-30T10:05:55.907Z,69.55
2018-06-30T10:08:24.184Z,68.15
2018-06-30T10:10:52.459Z,67.58
2018-06-30T10:13:20.842Z,69.21
2018-06-30T10:15:49.343Z,68.77
2018-06-30T10:18:17.687Z,68.53
2018-06-30T10:20:45.969Z,69.08
2018-06-30T10:23:14.243Z,67.75
2018-06-30T10:25:42.623Z,68.78
2018-06-30T10:28:11.469Z,68.72
2018-06-30T10:30:40.552Z,69.29
2018-06-30T10:33:09.553Z,67.31
2018-06-30T10:35:38.232Z,67.20
2018-06-30T10:38:06.764Z,66.70
2018-06-30T10:40:35.294Z,66.61
2018-06-30T10:43:03.628Z,68.12
2018-06-30T10:45:31.848Z,69.18
2018-06-30T10:48:00.277Z,70.04
2018-06-30T10:50:28.448Z,70.65
2018-06-30T10:52:56.827Z,70.16
2018-06-30T10:55:25.125Z,70.43
2018-06-30T10:57:53.171Z,71.38
2018-06-30T11:00:21.575Z,71.68
2018-06-30T11:02:50.031Z,70.12
2018-06-30T11:05:18.421Z,69.97
2018-06-30T11:07:46.764Z,70.11
2018-06-30T11:10:15.062Z,70.44
2018-06-30T11:12:43.451Z,68.55
2018-06-30T11:15:11.919Z,69.38
2018-06-30T11:17:40.265Z,68.34
2018-06-30T11:20:08.381Z,69.46
2018-06-30T11:22:36.848Z,68.11
2018-06-30T11:25:06.035Z,67.84
2018-06-30T11:27:34.135Z,67.93
2018-06-30T11:30:02.496Z,68.61
2018-06-30T11:32:30.982Z,68.11
2018-06-30T11:34:59.344Z,67.83
2018-06-30T11:37:27.824Z,65.82
2018-06-30T11:39:56.103Z,65.18
2018-06-30T11:42:24.379Z,65.12
2018-06-30T11:44:52.751Z,64.79
2018-06-30T11:47:21.031Z,64.30
2018-06-30T11:49:49.507Z,63.80
2018-06-30T11:52:17.800Z,64.02
2018-06-30T11:54:46.267Z,62.99
2018-06-30T11:57:14.436Z,62.31
2018-06-30T11:59:42.820Z,63.23
2018-06-30T12:02:11.227Z,62.45
2018-06-30T12:04:39.574Z,63.61
2018-06-30T12:07:08.008Z,60.76
2018-06-30T12:09:36.334Z,61.89
2018-06-30T12:12:04.812Z,61.47
2018-06-30T12:14:32.798Z,60.33
2018-06-30T12:17:01.153Z,60.39
2018-06-30T12:19:29.527Z,60.39
2018-06-30T12:21:57.700Z,61.41
2018-06-30T12:24:26.027Z,61.10
2018-06-30T12:26:54.578Z,61.23
2018-06-30T12:29:22.708Z,60.96
2018-06-30T12:31:51.116Z,61.78
2018-06-30T12:34:19.283Z,62.48
2018-06-30T12:36:47.481Z,61.88
2018-06-30T12:39:15.832Z,60.44
2018-06-30T12:41:44.219Z,60.38
2018-06-30T12:44:12.395Z,61.04
2018-06-30T12:46:40.663Z,61.80
2018-06-30T12:49:08.936Z,60.84
2018-06-30T12:51:37.216Z,60.97
2018-06-30T12:54:05.696Z,61.53
2018-06-30T12:56:34.179Z,61.21
2018-06-30T12:59:02.556Z,60.07
2018-06-30T13:01:30.932Z,60.18
2018-06-30T13:03:59.211Z,59.78
2018-06-30T13:06:27.484Z,59.61
2018-06-30T13:08:55.860Z,59.78
2018-06-30T13:11:24.445Z,60.64
2018-06-30T13:13:52.941Z,60.98
2018-06-30T13:16:21.404Z,61.31
2018-06-30T13:18:49.987Z,61.65
2018-06-30T13:21:18.521Z,63.04
2018-06-30T13:23:46.844Z,61.56
2018-06-30T13:26:15.113Z,61.24
2018-06-30T13:28:43.309Z,59.33
2018-06-30T13:31:11.884Z,61.03
2018-06-30T13:33:40.355Z,60.76
2018-06-30T13:36:08.836Z,60.84
2018-06-30T13:38:37.307Z,59.82
2018-06-30T13:41:05.796Z,60.96
2018-06-30T13:43:34.338Z,58.71
2018-06-30T13:46:02.331Z,57.98
2018-06-30T13:48:30.620Z,58.40
2018-06-30T13:50:59.099Z,58.65
2018-06-30T13:53:27.125Z,57.71
2018-06-30T13:55:55.555Z,57.28
2018-06-30T13:58:23.934Z,57.22
2018-06-30T14:00:52.429Z,56.65
2018-06-30T14:03:20.747Z,58.33
2018-06-30T14:05:49.268Z,56.06
2018-06-30T14:08:17.730Z,56.40
2018-06-30T14:10:46.041Z,56.20
2018-06-30T14:13:14.498Z,55.62
2018-06-30T14:15:42.862Z,56.54
2018-06-30T14:18:11.246Z,58.48
2018-06-30T14:20:39.501Z,59.34
2018-06-30T14:23:08.012Z,57.92
2018-06-30T14:25:36.286Z,56.22
2018-06-30T14:28:04.763Z,55.21
2018-06-30T14:30:33.140Z,55.24
2018-06-30T14:33:01.515Z,54.06
2018-06-30T14:35:29.886Z,54.65
2018-06-30T14:37:58.267Z,56.01
2018-06-30T14:40:26.345Z,56.14
2018-06-30T14:42:54.720Z,56.51
2018-06-30T14:45:23.085Z,56.56
2018-06-30T14:47:51.466Z,57.11
2018-06-30T14:50:19.907Z,57.76
2018-06-30T14:52:48.235Z,58.14
2018-06-30T14:55:16.481Z,56.41
2018-06-30T14:57:44.882Z,56.50
2018-06-30T15:00:12.907Z,57.33
2018-06-30T15:02:41.226Z,57.14
2018-06-30T15:05:10.751Z,57.07
2018-06-30T15:07:39.318Z,56.13
2018-06-30T15:10:08.348Z,54.38
2018-06-30T15:12:36.579Z,56.68
2018-06-30T15:15:05.255Z,59.59
2018-06-30T15:17:33.645Z,56.37
2018-06-30T15:20:02.015Z,56.29
2018-06-30T15:22:30.511Z,57.28
2018-06-30T15:24:58.881Z,56.77
2018-06-30T15:27:27.145Z,57.82
2018-06-30T15:29:55.439Z,58.41
2018-06-30T15:32:23.901Z,59.05
2018-06-30T15:34:52.196Z,59.43
2018-06-30T15:37:20.557Z,58.58
2018-06-30T15:39:48.942Z,60.00
2018-06-30T15:42:17.016Z,57.97
2018-06-30T15:44:45.185Z,57.59
2018-06-30T15:47:13.671Z,59.45
2018-06-30T15:49:41.941Z,59.16
2018-06-30T15:52:10.324Z,57.53
2018-06-30T15:54:38.593Z,58.81
2018-06-30T15:57:06.569Z,59.14
2018-06-30T15:59:34.829Z,57.92
2018-06-30T16:02:03.726Z,59.73
2018-06-30T16:04:31.729Z,60.26
2018-06-30T16:07:00.173Z,58.72
2018-06-30T16:09:28.442Z,57.83
2018-06-30T16:11:56.736Z,56.84
2018-06-30T16:14:25.097Z,58.14
2018-06-30T16:16:53.377Z,58.92
2018-06-30T16:19:21.654Z,57.68
2018-06-30T16:21:50.007Z,58.81
2018-06-30T16:24:18.409Z,58.01
2018-06-30T16:26:46.390Z,59.62
2018-06-30T16:29:14.554Z,60.37
2018-06-30T16:31:43.106Z,59.81
2018-06-30T16:34:11.318Z,58.29
2018-06-30T16:36:39.777Z,59.70
2018-06-30T16:39:09.149Z,58.17
2018-06-30T16:41:37.272Z,59.73
2018-06-30T16:44:05.793Z,58.32
2018-06-30T16:46:34.492Z,58.80
2018-06-30T16:49:02.966Z,59.49
2018-06-30T16:51:31.543Z,60.97
2018-06-30T16:53:59.853Z,59.99
2018-06-30T16:56:28.030Z,60.31
2018-06-30T16:58:56.424Z,60.13
2018-06-30T17:01:24.690Z,60.72
2018-06-30T17:03:52.853Z,60.74
2018-06-30T17:06:21.486Z,61.24
2018-06-30T17:08:49.814Z,60.14
2018-06-30T17:11:18.201Z,59.89
2018-06-30T17:13:46.580Z,60.89
2018-06-30T17:16:14.960Z,62.56
2018-06-30T17:18:43.240Z,63.18
2018-06-30T17:21:11.619Z,63.76
2018-06-30T17:23:39.982Z,64.06
2018-06-30T17:26:08.277Z,64.65
2018-06-30T17:28:36.650Z,65.70
2018-06-30T17:31:05.028Z,65.99
2018-06-30T17:33:33.290Z,66.01
2018-06-30T17:36:01.665Z,67.30
2018-06-30T17:38:30.051Z,68.64
2018-06-30T17:40:58.329Z,68.05
2018-06-30T17:43:26.601Z,68.87
2018-06-30T17:45:54.883Z,70.46
2018-06-30T17:48:23.246Z,70.22
2018-06-30T17:50:51.744Z,70.09
2018-06-30T17:53:20.156Z,69.89
2018-06-30T17:55:48.481Z,69.46
2018-06-30T17:58:16.392Z,70.18
2018-06-30T18:00:44.621Z,69.57
2018-06-30T18:03:13.010Z,70.45
2018-06-30T18:05:41.170Z,71.37
2018-06-30T18:08:09.359Z,71.36
2018-06-30T18:10:37.733Z,70.32
2018-06-30T18:13:06.110Z,69.07
2018-06-30T18:15:34.485Z,69.66
2018-06-30T18:18:02.866Z,69.51
2018-06-30T18:20:31.145Z,69.19
2018-06-30T18:22:59.414Z,70.06
2018-06-30T18:25:27.676Z,72.04
2018-06-30T18:27:56.069Z,72.65
2018-06-30T18:30:24.234Z,72.58
2018-06-30T18:32:52.622Z,71.78
2018-06-30T18:35:20.888Z,71.84
2018-06-30T18:37:49.280Z,72.11
2018-06-30T18:40:17.745Z,72.54
2018-06-30T18:42:45.935Z,72.95
2018-06-30T18:45:14.294Z,72.19
2018-06-30T18:47:42.673Z,71.42
2018-06-30T18:50:11.050Z,71.73
2018-06-30T18:52:39.402Z,73.96
2018-06-30T18:55:07.706Z,75.83
2018-06-30T18:57:37.114Z,76.47
2018-06-30T19:00:06.588Z,75.69
2018-06-30T19:02:34.904Z,76.46
2018-06-30T19:05:03.384Z,75.19
2018-06-30T19:07:31.750Z,76.12
2018-06-30T19:10:00.092Z,74.87
2018-06-30T19:12:28.406Z,74.36
2018-06-30T19:14:56.877Z,73.67
2018-06-30T19:17:25.262Z,73.43
2018-06-30T19:19:53.529Z,73.96
2018-06-30T19:22:21.710Z,74.85
2018-06-30T19:24:50.086Z,76.28
2018-06-30T19:27:18.366Z,77.11
2018-06-30T19:29:46.421Z,77.26
2018-06-30T19:32:14.712Z,78.21
2018-06-30T19:34:42.985Z,79.51
2018-06-30T19:37:11.361Z,79.65
2018-06-30T19:39:39.742Z,79.09
2018-06-30T19:42:08.133Z,78.46
2018-06-30T19:44:36.289Z,78.78
2018-06-30T19:47:04.769Z,78.66
2018-06-30T19:49:33.156Z,78.37
2018-06-30T19:52:01.528Z,78.44
2018-06-30T19:54:29.803Z,79.12
2018-06-30T19:56:58.183Z,80.24
2018-06-30T19:59:26.557Z,80.76
2018-06-30T20:01:54.868Z,81.33
2018-06-30T20:04:23.413Z,82.09
2018-06-30T20:06:51.585Z,81.17
2018-06-30T20:09:19.762Z,82.28
2018-06-30T20:11:48.030Z,81.70
2018-06-30T20:14:16.313Z,82.56
2018-06-30T20:16:44.485Z,81.83
2018-06-30T20:19:12.657Z,80.76
2018-06-30T20:21:41.034Z,81.35
2018-06-30T20:24:09.182Z,81.08
2018-06-30T20:26:37.600Z,81.53
2018-06-30T20:29:06.024Z,81.05
2018-06-30T20:31:34.445Z,80.83
2018-06-30T20:34:02.714Z,81.66
2018-06-30T20:36:30.993Z,81.92
2018-06-30T20:38:59.289Z,82.24
2018-06-30T20:41:27.757Z,82.44
2018-06-30T20:43:56.229Z,82.50
2018-06-30T20:46:24.279Z,82.45
2018-06-30T20:48:52.677Z,82.08
2018-06-30T20:51:21.068Z,82.12
2018-06-30T20:53:49.325Z,83.02
2018-06-30T20:56:17.821Z,83.33
2018-06-30T20:58:46.200Z,82.94
2018-06-30T21:01:14.221Z,82.62
2018-06-30T21:03:42.555Z,82.68
2018-06-30T21:06:11.025Z,82.95
2018-06-30T21:08:39.182Z,82.16
2018-06-30T21:11:07.472Z,82.61
2018-06-30T21:13:36.045Z,82.09
2018-06-30T21:16:04.336Z,82.23
2018-06-30T21:18:32.700Z,82.37
2018-06-30T21:21:00.980Z,82.56
2018-06-30T21:23:29.260Z,83.33
2018-06-30T21:25:57.719Z,82.94
2018-06-30T21:28:26.113Z,82.68
2018-06-30T21:30:54.431Z,82.00
2018-06-30T21:33:22.975Z,81.70
2018-06-30T21:35:51.343Z,82.84
2018-06-30T21:38:19.600Z,82.71
2018-06-30T21:40:47.904Z,83.89
2018-06-30T21:43:16.269Z,84.04
2018-06-30T21:45:44.549Z,84.59
2018-06-30T21:48:13.036Z,84.66
2018-06-30T21:50:41.506Z,84.23
2018-06-30T21:53:09.792Z,84.50
2018-06-30T21:55:38.102Z,84.76
2018-06-30T21:58:06.552Z,84.98
2018-06-30T22:00:47.684Z,85.69
2018-06-30T22:03:17.360Z,85.37
2018-06-30T22:05:45.598Z,85.99
2018-06-30T22:08:13.682Z,86.02
2018-06-30T22:10:42.204Z,85.62
2018-06-30T22:13:10.597Z,85.12
2018-06-30T22:15:38.904Z,85.63
2018-06-30T22:18:07.274Z,85.35
2018-06-30T22:20:35.914Z,84.97
2018-06-30T22:23:04.416Z,83.73
2018-06-30T22:25:33.233Z,84.07
2018-06-30T22:28:01.969Z,83.33
2018-06-30T22:30:30.549Z,83.00
2018-06-30T22:32:58.981Z,81.42
2018-06-30T22:35:27.361Z,82.28
2018-06-30T22:37:56.393Z,81.60
2018-06-30T22:40:24.820Z,79.93
2018-06-30T22:42:53.409Z,79.53
2018-06-30T22:45:21.307Z,77.72
2018-06-30T22:47:49.545Z,76.52
2018-06-30T22:50:18.493Z,75.81
2018-06-30T22:52:46.900Z,74.35
2018-06-30T22:55:15.406Z,73.60
2018-06-30T22:57:43.785Z,72.99
2018-06-30T23:00:14.203Z,72.53
2018-06-30T23:02:42.465Z,71.61
2018-06-30T23:05:10.854Z,71.71
2018-06-30T23:07:39.230Z,71.63
2018-06-30T23:10:07.721Z,70.89
2018-06-30T23:12:35.973Z,70.71
2018-06-30T23:15:04.470Z,70.77
2018-06-30T23:17:32.954Z,70.33
2018-06-30T23:20:01.334Z,71.12
2018-06-30T23:23:05.285Z,70.80
2018-06-30T23:25:34.151Z,70.50
2018-06-30T23:28:02.857Z,69.92
2018-06-30T23:30:31.555Z,70.18
2018-06-30T23:32:59.878Z,69.14
2018-06-30T23:35:29.154Z,69.05
2018-06-30T23:37:58.482Z,69.70
2018-06-30T23:40:27.070Z,69.56
2018-06-30T23:42:55.467Z,69.47
2018-06-30T23:45:24.129Z,68.97
2018-06-30T23:47:53.264Z,68.92
2018-06-30T23:50:21.808Z,69.38
2018-06-30T23:52:50.274Z,68.82
2018-06-30T23:55:18.649Z,69.15
2018-06-30T23:57:46.572Z,68.88
